sensor_id;sensor_type;location;lat;lon;timestamp;pressure;altitude;pressure_sealevel;temperature;humidity
73455;BME280;61690;51.824;6.306;2023-02-13T00:01:09;103634.41;;;19.31;45.13
73455;BME280;61690;51.824;6.306;2023-02-13T00:03:34;103630.94;;;19.29;45.17
73455;BME280;61690;51.824;6.306;2023-02-13T00:06:00;103626.47;;;19.31;45.24
73455;BME280;61690;51.824;6.306;2023-02-13T00:08:25;103630.88;;;19.31;44.92
73455;BME280;61690;51.824;6.306;2023-02-13T00:10:50;103628.31;;;19.28;45.24
73455;BME280;61690;51.824;6.306;2023-02-13T00:13:16;103623.97;;;19.25;45.01
73455;BME280;61690;51.824;6.306;2023-02-13T00:15:41;103623.91;;;19.28;45.09
73455;BME280;61690;51.824;6.306;2023-02-13T00:18:06;103623.03;;;19.28;44.87
73455;BME280;61690;51.824;6.306;2023-02-13T00:20:31;103627.50;;;19.26;44.79
73455;BME280;61690;51.824;6.306;2023-02-13T00:22:58;103620.41;;;19.28;45.16
73455;BME280;61690;51.824;6.306;2023-02-13T00:25:23;103617.03;;;19.21;45.05
73455;BME280;61690;51.824;6.306;2023-02-13T00:27:50;103619.66;;;19.23;45.19
73455;BME280;61690;51.824;6.306;2023-02-13T00:30:16;103617.09;;;19.19;44.88
73455;BME280;61690;51.824;6.306;2023-02-13T00:32:41;103612.69;;;19.20;45.33
73455;BME280;61690;51.824;6.306;2023-02-13T00:35:06;103614.47;;;19.19;45.13
73455;BME280;61690;51.824;6.306;2023-02-13T00:37:32;103619.75;;;19.19;44.96
73455;BME280;61690;51.824;6.306;2023-02-13T00:39:58;103616.25;;;19.17;44.77
73455;BME280;61690;51.824;6.306;2023-02-13T00:42:23;103621.53;;;19.17;45.22
73455;BME280;61690;51.824;6.306;2023-02-13T00:44:51;103620.66;;;19.17;45.09
73455;BME280;61690;51.824;6.306;2023-02-13T00:47:17;103611.03;;;19.16;45.25
73455;BME280;61690;51.824;6.306;2023-02-13T00:49:42;103619.81;;;19.16;45.01
73455;BME280;61690;51.824;6.306;2023-02-13T00:52:08;103621.69;;;19.11;45.21
73455;BME280;61690;51.824;6.306;2023-02-13T00:54:33;103618.16;;;19.12;44.88
73455;BME280;61690;51.824;6.306;2023-02-13T00:56:58;103617.19;;;19.15;44.51
73455;BME280;61690;51.824;6.306;2023-02-13T00:59:23;103619.88;;;19.13;44.78
73455;BME280;61690;51.824;6.306;2023-02-13T01:01:49;103612.88;;;19.12;44.88
73455;BME280;61690;51.824;6.306;2023-02-13T01:04:14;103619.88;;;19.13;44.87
73455;BME280;61690;51.824;6.306;2023-02-13T01:06:39;103620.75;;;19.14;44.95
73455;BME280;61690;51.824;6.306;2023-02-13T01:09:05;103622.63;;;19.09;45.04
73455;BME280;61690;51.824;6.306;2023-02-13T01:11:30;103621.78;;;19.08;44.78
73455;BME280;61690;51.824;6.306;2023-02-13T01:13:55;103621.84;;;19.05;44.75
73455;BME280;61690;51.824;6.306;2023-02-13T01:16:20;103615.59;;;19.08;44.71
73455;BME280;61690;51.824;6.306;2023-02-13T01:18:46;103609.47;;;19.07;45.02
73455;BME280;61690;51.824;6.306;2023-02-13T01:21:20;103609.47;;;19.07;45.10
73455;BME280;61690;51.824;6.306;2023-02-13T01:23:46;103618.31;;;19.06;44.86
73455;BME280;61690;51.824;6.306;2023-02-13T01:26:19;103617.53;;;19.01;44.89
73455;BME280;61690;51.824;6.306;2023-02-13T01:28:45;103623.66;;;19.02;44.75
73455;BME280;61690;51.824;6.306;2023-02-13T01:31:11;103619.25;;;19.02;45.20
73455;BME280;61690;51.824;6.306;2023-02-13T01:33:36;103622.72;;;19.04;44.55
73455;BME280;61690;51.824;6.306;2023-02-13T01:36:07;103618.41;;;19.02;45.03
73455;BME280;61690;51.824;6.306;2023-02-13T01:38:32;103611.41;;;19.00;44.89
73455;BME280;61690;51.824;6.306;2023-02-13T01:40:57;103614.97;;;18.98;45.09
73455;BME280;61690;51.824;6.306;2023-02-13T01:43:23;103613.16;;;19.00;44.75
73455;BME280;61690;51.824;6.306;2023-02-13T01:45:53;103603.63;;;18.94;45.01
73455;BME280;61690;51.824;6.306;2023-02-13T01:48:22;103604.44;;;18.96;45.13
73455;BME280;61690;51.824;6.306;2023-02-13T01:50:56;103600.94;;;18.96;44.79
73455;BME280;61690;51.824;6.306;2023-02-13T01:53:35;103599.13;;;18.98;45.08
73455;BME280;61690;51.824;6.306;2023-02-13T01:58:36;103607.16;;;18.93;45.21
73455;BME280;61690;51.824;6.306;2023-02-13T02:01:05;103600.13;;;18.94;45.13
73455;BME280;61690;51.824;6.306;2023-02-13T02:03:42;103600.13;;;18.94;45.03
73455;BME280;61690;51.824;6.306;2023-02-13T02:06:15;103604.50;;;18.95;44.57
73455;BME280;61690;51.824;6.306;2023-02-13T02:08:42;103605.31;;;18.97;44.63
73455;BME280;61690;51.824;6.306;2023-02-13T02:11:19;103600.13;;;18.94;45.04
73455;BME280;61690;51.824;6.306;2023-02-13T02:13:46;103601.88;;;18.95;44.87
73455;BME280;61690;51.824;6.306;2023-02-13T02:16:12;103602.88;;;18.89;45.10
73455;BME280;61690;51.824;6.306;2023-02-13T02:18:37;103603.72;;;18.90;44.74
73455;BME280;61690;51.824;6.306;2023-02-13T02:23:51;103595.00;;;18.88;44.99
73455;BME280;61690;51.824;6.306;2023-02-13T02:32:32;103596.66;;;18.92;44.48
73455;BME280;61690;51.824;6.306;2023-02-13T02:40:29;103582.66;;;18.88;44.79
73455;BME280;61690;51.824;6.306;2023-02-13T02:43:18;103587.97;;;18.87;44.67
73455;BME280;61690;51.824;6.306;2023-02-13T02:48:45;103595.88;;;18.87;44.60
73455;BME280;61690;51.824;6.306;2023-02-13T02:51:40;103595.97;;;18.84;44.60
73455;BME280;61690;51.824;6.306;2023-02-13T02:54:15;103593.38;;;18.82;44.92
73455;BME280;61690;51.824;6.306;2023-02-13T02:57:08;103594.25;;;18.81;44.56
73455;BME280;61690;51.824;6.306;2023-02-13T02:59:35;103587.16;;;18.85;44.64
73455;BME280;61690;51.824;6.306;2023-02-13T03:02:20;103587.25;;;18.82;44.89
73455;BME280;61690;51.824;6.306;2023-02-13T03:05:21;103591.59;;;18.83;44.75
73455;BME280;61690;51.824;6.306;2023-02-13T03:08:07;103592.53;;;18.78;44.78
73455;BME280;61690;51.824;6.306;2023-02-13T03:10:35;103599.56;;;18.79;44.65
73455;BME280;61690;51.824;6.306;2023-02-13T03:13:41;103582.84;;;18.80;44.43
73455;BME280;61690;51.824;6.306;2023-02-13T03:16:16;103592.53;;;18.78;44.81
73455;BME280;61690;51.824;6.306;2023-02-13T03:19:01;103582.84;;;18.80;44.75
73455;BME280;61690;51.824;6.306;2023-02-13T03:21:55;103593.41;;;18.79;44.68
73455;BME280;61690;51.824;6.306;2023-02-13T03:24:52;103596.81;;;18.86;44.21
73455;BME280;61690;51.824;6.306;2023-02-13T03:27:45;103587.09;;;18.88;44.39
73455;BME280;61690;51.824;6.306;2023-02-13T03:30:51;103587.19;;;18.83;44.46
73455;BME280;61690;51.824;6.306;2023-02-13T03:39:18;103590.03;;;18.74;44.35
73455;BME280;61690;51.824;6.306;2023-02-13T03:42:03;103590.81;;;18.77;44.57
73455;BME280;61690;51.824;6.306;2023-02-13T03:44:38;103593.56;;;18.71;44.42
73455;BME280;61690;51.824;6.306;2023-02-13T03:47:07;103593.50;;;18.74;44.33
73455;BME280;61690;51.824;6.306;2023-02-13T03:49:45;103592.69;;;18.72;44.21
73455;BME280;61690;51.824;6.306;2023-02-13T03:52:52;103599.69;;;18.73;44.68
73455;BME280;61690;51.824;6.306;2023-02-13T03:55:21;103598.00;;;18.69;44.34
73455;BME280;61690;51.824;6.306;2023-02-13T03:58:16;103594.63;;;18.64;44.91
73455;BME280;61690;51.824;6.306;2023-02-13T04:01:05;103594.56;;;18.67;44.67
73455;BME280;61690;51.824;6.306;2023-02-13T04:04:04;103595.06;;;18.85;44.34
73455;BME280;61690;51.824;6.306;2023-02-13T04:06:45;103589.47;;;18.98;43.96
73455;BME280;61690;51.824;6.306;2023-02-13T04:09:13;103591.81;;;19.09;43.75
73455;BME280;61690;51.824;6.306;2023-02-13T04:14:39;103594.50;;;19.42;43.12
73455;BME280;61690;51.824;6.306;2023-02-13T04:17:15;103592.34;;;19.58;42.62
73455;BME280;61690;51.824;6.306;2023-02-13T04:19:42;103590.47;;;19.62;42.69
73455;BME280;61690;51.824;6.306;2023-02-13T04:22:07;103600.97;;;19.65;42.91
73455;BME280;61690;51.824;6.306;2023-02-13T04:24:35;103591.22;;;19.67;42.80
73455;BME280;61690;51.824;6.306;2023-02-13T04:27:01;103597.28;;;19.72;42.69
73455;BME280;61690;51.824;6.306;2023-02-13T04:29:26;103597.97;;;19.78;42.45
73455;BME280;61690;51.824;6.306;2023-02-13T04:31:51;103596.22;;;19.79;42.24
73455;BME280;61690;51.824;6.306;2023-02-13T04:34:17;103596.13;;;19.82;42.77
73455;BME280;61690;51.824;6.306;2023-02-13T04:36:42;103589.75;;;19.89;42.46
73455;BME280;61690;51.824;6.306;2023-02-13T04:39:08;103594.97;;;19.92;42.51
73455;BME280;61690;51.824;6.306;2023-02-13T04:41:33;103597.59;;;19.92;42.50
73455;BME280;61690;51.824;6.306;2023-02-13T04:43:59;103601.09;;;19.93;42.51
73455;BME280;61690;51.824;6.306;2023-02-13T04:46:24;103595.81;;;19.93;42.65
73455;BME280;61690;51.824;6.306;2023-02-13T04:48:49;103595.91;;;19.90;42.35
73455;BME280;61690;51.824;6.306;2023-02-13T04:51:15;103598.69;;;19.85;42.65
73455;BME280;61690;51.824;6.306;2023-02-13T04:53:40;103598.78;;;19.81;42.70
73455;BME280;61690;51.824;6.306;2023-02-13T04:56:05;103597.03;;;19.81;42.69
73455;BME280;61690;51.824;6.306;2023-02-13T04:58:30;103591.78;;;19.80;42.67
73455;BME280;61690;51.824;6.306;2023-02-13T05:00:56;103592.72;;;19.77;42.84
73455;BME280;61690;51.824;6.306;2023-02-13T05:03:21;103593.56;;;19.79;42.60
73455;BME280;61690;51.824;6.306;2023-02-13T05:05:47;103596.97;;;19.83;43.01
73455;BME280;61690;51.824;6.306;2023-02-13T05:08:13;103580.75;;;19.96;42.65
73455;BME280;61690;51.824;6.306;2023-02-13T05:10:38;103589.31;;;20.05;42.19
73455;BME280;61690;51.824;6.306;2023-02-13T05:13:04;103588.34;;;20.07;42.48
73455;BME280;61690;51.824;6.306;2023-02-13T05:15:29;103584.78;;;20.10;42.15
73455;BME280;61690;51.824;6.306;2023-02-13T05:17:55;103577.56;;;20.15;42.37
73455;BME280;61690;51.824;6.306;2023-02-13T05:20:20;103580.00;;;20.21;42.02
73455;BME280;61690;51.824;6.306;2023-02-13T05:22:47;103575.06;;;20.10;42.48
73455;BME280;61690;51.824;6.306;2023-02-13T05:25:32;103573.28;;;20.11;42.48
73455;BME280;61690;51.824;6.306;2023-02-13T05:27:57;103577.28;;;20.24;42.83
73455;BME280;61690;51.824;6.306;2023-02-13T05:30:23;103571.28;;;20.47;42.95
73455;BME280;61690;51.824;6.306;2023-02-13T05:32:48;103570.88;;;20.61;42.77
73455;BME280;61690;51.824;6.306;2023-02-13T05:35:16;103573.28;;;20.69;42.82
73455;BME280;61690;51.824;6.306;2023-02-13T05:37:41;103575.66;;;20.78;42.96
73455;BME280;61690;51.824;6.306;2023-02-13T05:40:08;103579.91;;;20.82;42.83
73455;BME280;61690;51.824;6.306;2023-02-13T05:42:34;103571.06;;;20.55;42.92
73455;BME280;61690;51.824;6.306;2023-02-13T05:44:59;103576.38;;;20.53;42.97
73455;BME280;61690;51.824;6.306;2023-02-13T05:47:24;103580.28;;;20.71;43.22
73455;BME280;61690;51.824;6.306;2023-02-13T05:49:50;103578.16;;;20.83;43.06
73455;BME280;61690;51.824;6.306;2023-02-13T05:52:15;103570.84;;;20.91;43.06
73455;BME280;61690;51.824;6.306;2023-02-13T05:54:40;103572.44;;;20.95;43.32
73455;BME280;61690;51.824;6.306;2023-02-13T05:57:05;103575.97;;;20.95;43.40
73455;BME280;61690;51.824;6.306;2023-02-13T05:59:31;103578.59;;;20.95;43.32
73455;BME280;61690;51.824;6.306;2023-02-13T06:01:56;103574.28;;;20.93;43.44
73455;BME280;61690;51.824;6.306;2023-02-13T06:04:21;103569.97;;;20.90;43.43
73455;BME280;61690;51.824;6.306;2023-02-13T06:06:47;103572.63;;;20.90;43.37
73455;BME280;61690;51.824;6.306;2023-02-13T06:09:12;103565.53;;;20.91;43.73
73455;BME280;61690;51.824;6.306;2023-02-13T06:11:37;103570.03;;;20.89;43.36
73455;BME280;61690;51.824;6.306;2023-02-13T06:14:02;103568.19;;;20.91;43.84
73455;BME280;61690;51.824;6.306;2023-02-13T06:16:28;103564.13;;;20.81;43.88
73455;BME280;61690;51.824;6.306;2023-02-13T06:18:55;103565.19;;;20.75;44.11
73455;BME280;61690;51.824;6.306;2023-02-13T06:21:21;103564.47;;;20.70;44.18
73455;BME280;61690;51.824;6.306;2023-02-13T06:23:46;103573.38;;;20.67;44.29
73455;BME280;61690;51.824;6.306;2023-02-13T06:26:11;103572.34;;;20.71;44.29
73455;BME280;61690;51.824;6.306;2023-02-13T06:28:37;103575.53;;;20.53;43.92
73455;BME280;61690;51.824;6.306;2023-02-13T06:31:02;103570.97;;;20.60;44.43
73455;BME280;61690;51.824;6.306;2023-02-13T06:33:28;103577.16;;;20.57;44.76
73455;BME280;61690;51.824;6.306;2023-02-13T06:35:53;103571.03;;;20.56;44.67
73455;BME280;61690;51.824;6.306;2023-02-13T06:38:18;103581.69;;;20.53;45.04
73455;BME280;61690;51.824;6.306;2023-02-13T06:40:46;103573.84;;;20.50;45.09
73455;BME280;61690;51.824;6.306;2023-02-13T06:43:12;103573.22;;;20.42;45.09
73455;BME280;61690;51.824;6.306;2023-02-13T06:45:37;103578.66;;;20.37;45.25
73455;BME280;61690;51.824;6.306;2023-02-13T06:48:03;103581.44;;;20.33;45.39
73455;BME280;61690;51.824;6.306;2023-02-13T06:50:28;103586.56;;;20.37;45.20
73455;BME280;61690;51.824;6.306;2023-02-13T06:52:53;103582.00;;;20.44;45.42
73455;BME280;61690;51.824;6.306;2023-02-13T06:55:19;103582.00;;;20.44;45.67
73455;BME280;61690;51.824;6.306;2023-02-13T06:57:45;103587.34;;;20.41;46.08
73455;BME280;61690;51.824;6.306;2023-02-13T07:00:12;103596.84;;;20.48;45.92
73455;BME280;61690;51.824;6.306;2023-02-13T07:02:42;103587.41;;;20.40;46.44
73455;BME280;61690;51.824;6.306;2023-02-13T07:05:08;103591.47;;;20.50;46.24
73455;BME280;61690;51.824;6.306;2023-02-13T07:07:34;103589.00;;;20.45;46.49
73455;BME280;61690;51.824;6.306;2023-02-13T07:10:00;103600.03;;;20.30;46.87
73455;BME280;61690;51.824;6.306;2023-02-13T07:12:26;103602.53;;;20.34;46.89
73455;BME280;61690;51.824;6.306;2023-02-13T07:14:51;103596.34;;;20.35;47.04
73455;BME280;61690;51.824;6.306;2023-02-13T07:17:17;103601.84;;;20.28;46.80
73455;BME280;61690;51.824;6.306;2023-02-13T07:19:42;103600.47;;;20.14;46.95
73455;BME280;61690;51.824;6.306;2023-02-13T07:22:07;103601.56;;;20.07;47.08
73455;BME280;61690;51.824;6.306;2023-02-13T07:24:33;103604.53;;;19.96;46.73
73455;BME280;61690;51.824;6.306;2023-02-13T07:26:59;103608.66;;;20.05;46.92
73455;BME280;61690;51.824;6.306;2023-02-13T07:29:25;103608.81;;;20.01;47.06
73455;BME280;61690;51.824;6.306;2023-02-13T07:31:50;103610.38;;;20.08;47.10
73455;BME280;61690;51.824;6.306;2023-02-13T07:34:16;103612.06;;;20.10;47.46
73455;BME280;61690;51.824;6.306;2023-02-13T07:36:41;103610.91;;;20.19;47.48
73455;BME280;61690;51.824;6.306;2023-02-13T07:39:06;103614.81;;;20.06;47.88
73455;BME280;61690;51.824;6.306;2023-02-13T07:41:31;103610.28;;;20.11;47.63
73455;BME280;61690;51.824;6.306;2023-02-13T07:43:57;103613.03;;;20.08;47.86
73455;BME280;61690;51.824;6.306;2023-02-13T07:46:22;103615.69;;;20.06;47.59
73455;BME280;61690;51.824;6.306;2023-02-13T07:48:47;103615.81;;;20.02;47.81
73455;BME280;61690;51.824;6.306;2023-02-13T07:51:13;103610.38;;;20.08;48.02
73455;BME280;61690;51.824;6.306;2023-02-13T07:53:38;103618.53;;;20.00;48.29
73455;BME280;61690;51.824;6.306;2023-02-13T07:56:08;103619.59;;;19.93;48.57
73455;BME280;61690;51.824;6.306;2023-02-13T07:58:35;103617.88;;;19.90;48.68
73455;BME280;61690;51.824;6.306;2023-02-13T08:01:08;103625.78;;;19.92;48.76
73455;BME280;61690;51.824;6.306;2023-02-13T08:03:33;103624.84;;;19.94;48.25
73455;BME280;61690;51.824;6.306;2023-02-13T08:05:58;103621.31;;;19.94;48.64
73455;BME280;61690;51.824;6.306;2023-02-13T08:08:24;103626.59;;;19.94;49.02
73455;BME280;61690;51.824;6.306;2023-02-13T08:10:49;103629.38;;;19.89;49.11
73455;BME280;61690;51.824;6.306;2023-02-13T08:13:33;103636.28;;;19.61;48.23
73455;BME280;61690;51.824;6.306;2023-02-13T08:15:58;103644.84;;;17.15;44.35
73455;BME280;61690;51.824;6.306;2023-02-13T08:18:23;103640.16;;;17.85;45.03
73455;BME280;61690;51.824;6.306;2023-02-13T08:20:49;103626.38;;;18.58;45.09
73455;BME280;61690;51.824;6.306;2023-02-13T08:23:14;103633.56;;;18.92;44.39
73455;BME280;61690;51.824;6.306;2023-02-13T08:25:39;103626.97;;;19.10;44.44
73455;BME280;61690;51.824;6.306;2023-02-13T08:28:06;103620.59;;;19.20;44.20
73455;BME280;61690;51.824;6.306;2023-02-13T08:30:31;103620.44;;;19.26;44.14
73455;BME280;61690;51.824;6.306;2023-02-13T08:32:56;103622.13;;;19.29;44.12
73455;BME280;61690;51.824;6.306;2023-02-13T08:35:22;103615.00;;;19.32;44.28
73455;BME280;61690;51.824;6.306;2023-02-13T08:37:54;103629.81;;;19.38;43.66
73455;BME280;61690;51.824;6.306;2023-02-13T08:40:19;103630.66;;;19.38;43.84
73455;BME280;61690;51.824;6.306;2023-02-13T08:42:45;103628.94;;;19.39;44.08
73455;BME280;61690;51.824;6.306;2023-02-13T08:45:10;103628.97;;;19.37;43.72
73455;BME280;61690;51.824;6.306;2023-02-13T08:47:37;103623.69;;;19.37;43.73
73455;BME280;61690;51.824;6.306;2023-02-13T08:50:03;103631.63;;;19.36;44.05
73455;BME280;61690;51.824;6.306;2023-02-13T08:52:29;103636.91;;;19.36;44.27
73455;BME280;61690;51.824;6.306;2023-02-13T08:54:54;103642.19;;;19.36;43.96
73455;BME280;61690;51.824;6.306;2023-02-13T08:57:19;103635.94;;;19.38;44.39
73455;BME280;61690;51.824;6.306;2023-02-13T08:59:45;103639.53;;;19.36;44.15
73455;BME280;61690;51.824;6.306;2023-02-13T09:02:10;103641.38;;;19.32;44.32
73455;BME280;61690;51.824;6.306;2023-02-13T09:04:36;103649.22;;;19.37;44.13
73455;BME280;61690;51.824;6.306;2023-02-13T09:07:01;103644.00;;;19.34;43.85
73455;BME280;61690;51.824;6.306;2023-02-13T09:09:26;103631.75;;;19.31;44.17
73455;BME280;61690;51.824;6.306;2023-02-13T09:11:52;103637.91;;;19.32;43.94
73455;BME280;61690;51.824;6.306;2023-02-13T09:14:20;103634.44;;;19.30;43.94
73455;BME280;61690;51.824;6.306;2023-02-13T09:16:45;103645.81;;;19.32;44.32
73455;BME280;61690;51.824;6.306;2023-02-13T09:19:10;103636.69;;;19.45;43.69
73455;BME280;61690;51.824;6.306;2023-02-13T09:21:36;103640.97;;;19.49;44.00
73455;BME280;61690;51.824;6.306;2023-02-13T09:24:01;103636.69;;;19.45;44.45
73455;BME280;61690;51.824;6.306;2023-02-13T09:26:26;103639.97;;;19.53;44.52
73455;BME280;61690;51.824;6.306;2023-02-13T09:28:52;103638.25;;;19.52;44.84
73455;BME280;61690;51.824;6.306;2023-02-13T09:31:18;103641.78;;;19.51;44.70
73455;BME280;61690;51.824;6.306;2023-02-13T09:33:45;103638.97;;;19.59;44.98
73455;BME280;61690;51.824;6.306;2023-02-13T09:36:13;103639.81;;;19.59;45.02
73455;BME280;61690;51.824;6.306;2023-02-13T09:38:40;103637.25;;;19.58;45.34
73455;BME280;61690;51.824;6.306;2023-02-13T09:43:43;103629.25;;;19.59;45.73
73455;BME280;61690;51.824;6.306;2023-02-13T09:46:14;103634.69;;;19.53;45.79
73455;BME280;61690;51.824;6.306;2023-02-13T09:48:42;103638.09;;;19.58;45.70
73455;BME280;61690;51.824;6.306;2023-02-13T09:51:17;103637.38;;;19.52;45.97
73455;BME280;61690;51.824;6.306;2023-02-13T09:53:52;103639.91;;;19.56;46.57
73455;BME280;61690;51.824;6.306;2023-02-13T10:08:13;103644.63;;;20.11;44.94
73455;BME280;61690;51.824;6.306;2023-02-13T10:11:03;103638.63;;;20.35;44.74
73455;BME280;61690;51.824;6.306;2023-02-13T10:16:37;103641.28;;;20.35;44.11
73455;BME280;61690;51.824;6.306;2023-02-13T10:21:53;103649.63;;;20.81;43.60
73455;BME280;61690;51.824;6.306;2023-02-13T10:24:32;103642.47;;;20.85;43.51
73455;BME280;61690;51.824;6.306;2023-02-13T10:27:04;103646.38;;;20.73;43.56
73455;BME280;61690;51.824;6.306;2023-02-13T10:29:47;103647.00;;;20.50;44.37
73455;BME280;61690;51.824;6.306;2023-02-13T10:38:28;103643.47;;;20.51;44.89
73455;BME280;61690;51.824;6.306;2023-02-13T10:43:37;103639.44;;;20.37;45.72
73455;BME280;61690;51.824;6.306;2023-02-13T10:49:16;103639.19;;;20.47;45.51
73455;BME280;61690;51.824;6.306;2023-02-13T10:57:16;103627.69;;;20.18;46.69
73455;BME280;61690;51.824;6.306;2023-02-13T11:00:01;103624.50;;;20.07;46.76
73455;BME280;61690;51.824;6.306;2023-02-13T11:02:30;103618.47;;;20.02;46.61
73455;BME280;61690;51.824;6.306;2023-02-13T11:05:00;103609.75;;;19.98;46.56
73455;BME280;61690;51.824;6.306;2023-02-13T11:07:26;103608.00;;;19.98;46.24
73455;BME280;61690;51.824;6.306;2023-02-13T11:10:02;103608.03;;;19.97;46.26
73455;BME280;61690;51.824;6.306;2023-02-13T11:12:31;103602.94;;;19.91;46.39
73455;BME280;61690;51.824;6.306;2023-02-13T11:14:58;103600.31;;;19.89;46.82
73455;BME280;61690;51.824;6.306;2023-02-13T11:17:33;103600.31;;;19.89;46.46
73455;BME280;61690;51.824;6.306;2023-02-13T11:20:04;103594.31;;;19.83;46.65
73455;BME280;61690;51.824;6.306;2023-02-13T11:22:33;103593.50;;;19.81;46.74
73455;BME280;61690;51.824;6.306;2023-02-13T11:25:03;103593.50;;;19.81;46.26
73455;BME280;61690;51.824;6.306;2023-02-13T11:27:35;103595.28;;;19.80;46.44
73455;BME280;61690;51.824;6.306;2023-02-13T11:30:05;103588.44;;;19.73;46.31
73455;BME280;61690;51.824;6.306;2023-02-13T11:32:33;103595.47;;;19.74;46.15
73455;BME280;61690;51.824;6.306;2023-02-13T11:35:35;103590.22;;;19.71;46.38
73455;BME280;61690;51.824;6.306;2023-02-13T11:40:39;103587.69;;;19.68;46.18
73455;BME280;61690;51.824;6.306;2023-02-13T11:43:06;103589.41;;;19.69;46.21
73455;BME280;61690;51.824;6.306;2023-02-13T11:45:32;103590.38;;;19.66;46.53
73455;BME280;61690;51.824;6.306;2023-02-13T11:47:58;103582.44;;;19.66;46.41
73455;BME280;61690;51.824;6.306;2023-02-13T11:55:32;103576.34;;;19.64;46.11
73455;BME280;61690;51.824;6.306;2023-02-13T11:58:01;103571.66;;;19.75;45.91
73455;BME280;61690;51.824;6.306;2023-02-13T12:00:34;103570.25;;;19.93;45.60
73455;BME280;61690;51.824;6.306;2023-02-13T12:03:22;103566.44;;;20.04;45.04
73455;BME280;61690;51.824;6.306;2023-02-13T12:06:12;103552.69;;;20.22;44.71
73455;BME280;61690;51.824;6.306;2023-02-13T12:08:40;103552.44;;;20.30;44.17
73455;BME280;61690;51.824;6.306;2023-02-13T12:13:57;103564.81;;;17.78;43.66
73455;BME280;61690;51.824;6.306;2023-02-13T12:16:36;103558.00;;;18.52;43.13
73455;BME280;61690;51.824;6.306;2023-02-13T12:19:06;103557.59;;;20.05;40.70
73455;BME280;61690;51.824;6.306;2023-02-13T12:21:50;103555.53;;;21.26;39.11
73455;BME280;61690;51.824;6.306;2023-02-13T12:24:45;103548.84;;;21.89;38.33
73455;BME280;61690;51.824;6.306;2023-02-13T12:32:46;103544.69;;;22.74;38.02
73455;BME280;61690;51.824;6.306;2023-02-13T12:35:44;103533.38;;;22.90;37.86
73455;BME280;61690;51.824;6.306;2023-02-13T12:38:29;103531.91;;;23.05;37.69
73455;BME280;61690;51.824;6.306;2023-02-13T12:44:00;103527.78;;;22.76;38.69
73455;BME280;61690;51.824;6.306;2023-02-13T12:49:13;103520.84;;;22.06;40.38
73455;BME280;61690;51.824;6.306;2023-02-13T12:51:55;103514.81;;;22.02;40.45
73455;BME280;61690;51.824;6.306;2023-02-13T12:57:28;103520.78;;;21.84;41.48
73455;BME280;61690;51.824;6.306;2023-02-13T13:03:19;103502.50;;;21.78;42.11
73455;BME280;61690;51.824;6.306;2023-02-13T13:09:16;103501.16;;;21.66;42.75
73455;BME280;61690;51.824;6.306;2023-02-13T13:14:41;103499.94;;;21.51;42.91
73455;BME280;61690;51.824;6.306;2023-02-13T13:25:21;103501.50;;;21.06;43.70
73455;BME280;61690;51.824;6.306;2023-02-13T13:27:52;103495.84;;;19.13;40.89
73455;BME280;61690;51.824;6.306;2023-02-13T13:30:22;103498.75;;;17.45;43.55
73455;BME280;61690;51.824;6.306;2023-02-13T13:32:55;103493.53;;;17.42;43.91
73455;BME280;61690;51.824;6.306;2023-02-13T13:35:23;103500.81;;;18.18;42.92
73455;BME280;61690;51.824;6.306;2023-02-13T13:40:54;103480.72;;;19.84;40.56
73455;BME280;61690;51.824;6.306;2023-02-13T13:43:39;103485.09;;;20.13;40.18
73455;BME280;61690;51.824;6.306;2023-02-13T13:46:19;103475.84;;;20.28;40.28
73455;BME280;61690;51.824;6.306;2023-02-13T13:51:39;103466.75;;;20.37;40.54
73455;BME280;61690;51.824;6.306;2023-02-13T14:05:17;103464.69;;;20.47;41.37
73455;BME280;61690;51.824;6.306;2023-02-13T14:07:44;103466.03;;;18.00;42.51
73455;BME280;61690;51.824;6.306;2023-02-13T14:12:47;103449.59;;;20.50;39.08
73455;BME280;61690;51.824;6.306;2023-02-13T14:20:41;103434.19;;;22.08;37.09
73455;BME280;61690;51.824;6.306;2023-02-13T14:26:27;103430.66;;;21.38;39.04
73455;BME280;61690;51.824;6.306;2023-02-13T14:29:21;103429.97;;;21.33;39.46
73455;BME280;61690;51.824;6.306;2023-02-13T14:32:18;103432.16;;;21.22;39.93
73455;BME280;61690;51.824;6.306;2023-02-13T14:34:51;103435.06;;;21.14;40.45
73455;BME280;61690;51.824;6.306;2023-02-13T14:37:20;103434.31;;;21.10;40.74
73455;BME280;61690;51.824;6.306;2023-02-13T14:42:35;103429.88;;;20.86;41.80
73455;BME280;61690;51.824;6.306;2023-02-13T14:45:04;103426.38;;;20.85;42.26
73455;BME280;61690;51.824;6.306;2023-02-13T14:47:40;103436.16;;;21.08;41.94
73455;BME280;61690;51.824;6.306;2023-02-13T14:50:15;103429.69;;;21.17;42.06
73455;BME280;61690;51.824;6.306;2023-02-13T14:52:43;103431.66;;;21.10;42.39
73455;BME280;61690;51.824;6.306;2023-02-13T14:55:24;103428.16;;;21.10;42.50
73455;BME280;61690;51.824;6.306;2023-02-13T14:58:05;103431.22;;;20.98;42.81
73455;BME280;61690;51.824;6.306;2023-02-13T15:00:42;103437.69;;;20.90;43.17
73455;BME280;61690;51.824;6.306;2023-02-13T15:03:43;103430.69;;;20.88;43.36
73455;BME280;61690;51.824;6.306;2023-02-13T15:06:25;103425.25;;;20.92;43.53
73455;BME280;61690;51.824;6.306;2023-02-13T15:08:52;103421.81;;;20.65;43.81
73455;BME280;61690;51.824;6.306;2023-02-13T15:16:53;103426.66;;;20.78;44.17
73455;BME280;61690;51.824;6.306;2023-02-13T15:19:22;103426.88;;;20.71;44.55
73455;BME280;61690;51.824;6.306;2023-02-13T15:21:51;103421.59;;;20.71;44.35
73455;BME280;61690;51.824;6.306;2023-02-13T15:24:19;103419.78;;;20.72;44.08
73455;BME280;61690;51.824;6.306;2023-02-13T15:26:54;103412.84;;;20.69;44.44
73455;BME280;61690;51.824;6.306;2023-02-13T15:29:21;103411.94;;;20.69;44.67
73455;BME280;61690;51.824;6.306;2023-02-13T15:31:46;103414.25;;;20.80;44.79